Carlton, GA (30627)

1:25 AM EDT on July 31, 2014 (GMT -0400)
KGAELBER3 Elev 627 ft | 34.16 °N, 82.86 °W | Change Station

Current weather conditions updated 5 seconds ago

Scattered Clouds
Scattered Clouds
70.0 °F
Feels Like 70.0 °F
N
0.0
Wind Variable Wind from NNW
Gusts 0.0 mph

Today is forecast to be nearly the same temperature as yesterday. Showers and thunderstorms late.

Today
High -- | Low -- °F
--% Chance of Precip.
Yesterday
High -- | Low -- °F
Precip. -- in
6:42 AM 8:33 PM
Waxing Crescent, 16% visible
Pressure 30.05 in
Visibility 10.0 miles
Clouds Scattered Clouds 6000 ft
Dew Point 63 °F
Humidity 78%
Rainfall 0.00 in
Snow Depth Not available.
UV 0 out of 12
Pollen 5.30 out of 12
Air Quality Not available.
Flu Activity Not available.
METAR KIIY 310515Z AUTO 08003KT 10SM SCT060 25/22 A3005 RMK AO2

More Conditions Fewer Conditions

Pressure 30.05 in
Visibility 10.0 miles
Clouds Scattered Clouds 6000 ft
Dew Point 63 °F
Humidity 78%
Rainfall 0.00 in
Snow Depth Not available.
UV 0 out of 12
Pollen 5.30 out of 12
Air Quality Not available.
Flu Activity Not available.
METAR KIIY 310515Z AUTO 08003KT 10SM SCT060 25/22 A3005 RMK AO2

More Conditions Fewer Conditions

10-Day Weather Forecast

Almanac

Astronomy

Jul. 31, 2014 Rise Set
Actual Time 6:42 AM EDT 8:33 PM EDT
Civil Twilight 6:15 AM EDT 9:00 PM EDT
Nautical Twilight 5:41 AM EDT 9:33 PM EDT
Astronomical Twilight 5:06 AM EDT 10:08 PM EDT
Moon 10:54 AM EDT 11:01 PM EDT
Length of Visible Light 14h 45m
Length of Day
13h 50m
Tomorrow will be 1m 34s shorter.
Waxing Crescent, 16% of the Moon is Illuminated
Today
Waxing Crescent
Aug 3
First Quarter
Aug 10
Full
Aug 17
Last Quarter
Aug 25
New

Today's Extremes

State Highs State Lows

Community

WunderPhotos

Upload Photos

1,739,248 photos uploaded!

Nearby

Snow Depth

Station Depth Elevation
No new snow has been reported.

Earthquake Activity

City Distance Mag. Time & Date
No recent earthquake activity has been reported nearby.
Minimum magnitude displayed is 2.5.

Coastal Water Temperatures

Place Temperature
No Stations Reporting

Nearby Weather Stations

Station Location Temp. Heat Index Dew Point Humidity Wind Precip. Elev Updated Type
APRSWXNET Lexington GA , Lexington, GA 69 °F - 62 °F 79% North  at  0 mph 0.00 in / hr 728 ft 12:08 AM EDT MADIS
Elberton, GA 70.0 °F - 63 °F 78% NNW  at  0.0 mph 0.00 in / hr 627 ft 1:25 AM EDT Rapid Fire
RAWS WASHINGTON GA, Tignall, GA 74 °F 77 °F 61 °F 63% ESE  at  3 mph 0.00 in / hr 616 ft 12:02 AM EDT MADIS
Wyndfield, Athens-Clarke County, GA 69.7 °F - 57 °F 65% SSW  at  0.0 mph 0.00 in / hr 647 ft 12:37 AM EDT Rapid Fire
D-Ville, Danielsville, GA 69.6 °F - 61 °F 74% NNE  at  0.0 mph 0.00 in / hr 781 ft 1:25 AM EDT Rapid Fire

Show More Stations Show Fewer Stations